Time;durP1;ratioP1;P1;durP2;ratioP2;P2;SDS_P1;SDS_P2;PMS_P1;PMS_P2;Temp;Humidity;BMP_temperature;BMP_pressure;BME280_temperature;BME280_humidity;BME280_pressure;Samples;Min_cycle;Max_cycle;Signal;HPM_P1;HPM_P2
2021/07/19 00:01:56;;;;;;;1.38;1.00;;;26.20;48.10;;;;;;5054873;28;20114;-57
2021/07/19 00:04:22;;;;;;;1.73;1.02;;;26.20;48.10;;;;;;5053986;28;20329;-59
2021/07/19 00:06:48;;;;;;;1.60;0.95;;;26.20;48.00;;;;;;5054407;28;20048;-59
2021/07/19 00:09:14;;;;;;;1.25;0.90;;;26.20;48.00;;;;;;5054855;28;20041;-56
2021/07/19 00:11:43;;;;;;;1.25;1.15;;;26.10;47.90;;;;;;5054053;28;20080;-57
2021/07/19 00:14:10;;;;;;;1.40;1.20;;;26.10;47.90;;;;;;5054297;28;20437;-54
2021/07/19 00:16:36;;;;;;;1.35;1.23;;;26.10;47.90;;;;;;5053969;28;20025;-57
2021/07/19 00:19:03;;;;;;;2.45;1.55;;;26.10;47.90;;;;;;5054678;28;20136;-54
2021/07/19 00:21:29;;;;;;;1.20;1.10;;;26.10;47.90;;;;;;5053888;28;20467;-57
2021/07/19 00:23:54;;;;;;;1.42;0.95;;;26.10;47.90;;;;;;5054131;28;20029;-58
2021/07/19 00:26:21;;;;;;;1.52;1.20;;;26.10;47.90;;;;;;5054176;28;20467;-59
2021/07/19 00:28:50;;;;;;;1.70;1.35;;;26.10;47.90;;;;;;5053813;28;20111;-57
2021/07/19 00:31:16;;;;;;;2.13;1.38;;;26.10;47.90;;;;;;5053701;28;20029;-58
2021/07/19 00:33:43;;;;;;;2.00;1.20;;;26.10;47.90;;;;;;5054465;28;20036;-56
2021/07/19 00:36:09;;;;;;;1.77;1.20;;;26.10;47.90;;;;;;5053677;28;20025;-58
2021/07/19 00:38:36;;;;;;;1.70;1.50;;;26.00;47.90;;;;;;5054236;28;20322;-52
2021/07/19 00:41:03;;;;;;;1.35;1.20;;;26.10;47.90;;;;;;5035597;28;20070;-59
2021/07/19 00:43:29;;;;;;;2.00;1.45;;;26.10;48.00;;;;;;5053509;28;20393;-56
2021/07/19 00:45:55;;;;;;;1.80;1.40;;;26.00;47.90;;;;;;5053670;28;20036;-57
2021/07/19 00:48:21;;;;;;;2.05;1.55;;;26.00;47.90;;;;;;5036579;28;20052;-59
2021/07/19 00:50:49;;;;;;;1.67;1.33;;;26.00;47.90;;;;;;5035310;28;20044;-52
2021/07/19 00:53:15;;;;;;;2.67;1.52;;;26.00;47.90;;;;;;5053748;28;20029;-57
2021/07/19 00:55:45;;;;;;;1.88;1.55;;;26.00;47.90;;;;;;5035738;28;20352;-56
2021/07/19 00:58:13;;;;;;;1.35;1.25;;;26.00;47.90;;;;;;5054166;28;20032;-59
2021/07/19 01:00:53;;;;;;;1.92;1.55;;;25.90;47.80;;;;;;5053086;28;20087;-56
2021/07/19 01:03:20;;;;;;;1.52;1.27;;;26.00;47.80;;;;;;5036098;28;20029;-59
2021/07/19 01:05:46;;;;;;;1.65;1.40;;;25.90;47.80;;;;;;5052915;28;20064;-57
2021/07/19 01:08:13;;;;;;;2.17;1.50;;;25.90;47.80;;;;;;5036073;28;20021;-59
2021/07/19 01:10:41;;;;;;;2.00;1.40;;;25.90;47.80;;;;;;5034618;28;20123;-56
2021/07/19 01:13:08;;;;;;;2.22;1.58;;;25.90;47.80;;;;;;5019253;28;20119;-58
2021/07/19 01:15:37;;;;;;;1.90;1.63;;;25.90;47.80;;;;;;5053355;28;20352;-57
2021/07/19 01:18:06;;;;;;;2.10;1.60;;;25.90;47.80;;;;;;5035989;28;20087;-60
2021/07/19 01:20:57;;;;;;;2.38;1.52;;;25.90;47.80;;;;;;5053253;28;20139;-58
2021/07/19 01:23:35;;;;;;;2.00;1.60;;;25.90;47.70;;;;;;5035784;28;20405;-54
2021/07/19 01:26:20;;;;;;;1.98;1.60;;;25.90;47.70;;;;;;5035009;28;20048;-57
2021/07/19 01:28:53;;;;;;;;;;;25.90;47.80;;;;;;5035251;28;20110;-58
2021/07/19 01:31:24;;;;;;;1.48;1.38;;;25.80;47.80;;;;;;5033754;28;19963;-57
2021/07/19 01:34:01;;;;;;;1.77;1.48;;;25.80;47.80;;;;;;5035240;28;20033;-55
2021/07/19 01:36:39;;;;;;;1.92;1.50;;;25.80;47.70;;;;;;5024302;28;20445;-59
2021/07/19 01:39:23;;;;;;;;;;;25.80;47.70;;;;;;5035854;28;20029;-57
2021/07/19 01:41:51;;;;;;;1.58;1.45;;;25.80;47.90;;;;;;5035726;28;19909;-58
2021/07/19 01:44:17;;;;;;;2.33;1.48;;;25.80;47.90;;;;;;5053078;28;20106;-57
2021/07/19 01:46:45;;;;;;;1.70;1.50;;;25.80;47.80;;;;;;5053175;28;20037;-59
2021/07/19 01:49:13;;;;;;;1.85;1.50;;;25.80;47.80;;;;;;5035240;28;20033;-56
2021/07/19 01:51:40;;;;;;;2.10;1.63;;;25.80;47.80;;;;;;5035159;28;20340;-59
2021/07/19 01:54:07;;;;;;;1.60;1.50;;;25.70;47.70;;;;;;5035356;28;20020;-59
2021/07/19 01:56:35;;;;;;;1.80;1.50;;;25.80;47.80;;;;;;5034526;28;20025;-56
2021/07/19 01:59:02;;;;;;;3.10;1.40;;;25.70;47.70;;;;;;5053415;28;20106;-56
2021/07/19 02:01:34;;;;;;;1.92;1.35;;;25.80;47.80;;;;;;5052706;28;20039;-56
2021/07/19 02:04:00;;;;;;;1.90;1.70;;;25.80;47.70;;;;;;5035666;28;20037;-55
2021/07/19 02:06:27;;;;;;;1.98;1.55;;;25.70;47.70;;;;;;5051729;28;20072;-56
2021/07/19 02:09:06;;;;;;;1.80;1.60;;;25.70;47.70;;;;;;5035068;28;20094;-58
2021/07/19 02:11:51;;;;;;;2.15;1.70;;;25.70;47.70;;;;;;5035223;28;20112;-57
2021/07/19 02:14:20;;;;;;;1.60;1.48;;;25.70;47.80;;;;;;5033292;28;20322;-59
2021/07/19 02:16:57;;;;;;;2.10;1.70;;;25.70;47.80;;;;;;5038713;28;20047;-56
2021/07/19 02:19:25;;;;;;;1.85;1.50;;;25.70;47.80;;;;;;5038596;28;20045;-58
2021/07/19 02:21:54;;;;;;;1.80;1.52;;;25.70;47.80;;;;;;5033341;28;20041;-55
2021/07/19 02:24:43;;;;;;;1.92;1.38;;;25.60;47.80;;;;;;5045195;28;20049;-58
2021/07/19 02:27:20;;;;;;;2.35;1.67;;;25.70;47.90;;;;;;5038923;28;20098;-55
2021/07/19 02:29:48;;;;;;;2.20;1.90;;;25.60;47.80;;;;;;5037950;28;20028;-56
2021/07/19 02:32:17;;;;;;;2.00;1.75;;;25.60;47.80;;;;;;5039046;28;20499;-57
2021/07/19 02:34:48;;;;;;;1.65;1.50;;;25.60;47.80;;;;;;5038217;28;20041;-59
2021/07/19 02:37:16;;;;;;;1.95;1.52;;;25.60;47.80;;;;;;5038440;28;20035;-57
2021/07/19 02:40:14;;;;;;;2.38;1.60;;;25.60;47.90;;;;;;5024858;28;20065;-56
2021/07/19 02:42:49;;;;;;;2.33;1.73;;;25.60;47.90;;;;;;5034476;28;20032;-60
2021/07/19 02:45:17;;;;;;;1.77;1.58;;;25.60;47.80;;;;;;5056314;28;20486;-60
2021/07/19 02:47:49;;;;;;;1.92;1.73;;;25.60;47.90;;;;;;5037413;28;20456;-58
2021/07/19 02:50:22;;;;;;;1.70;1.50;;;25.60;47.90;;;;;;5038491;28;20047;-57
2021/07/19 02:52:50;;;;;;;2.08;1.58;;;25.60;47.90;;;;;;5037361;28;20090;-59
2021/07/19 02:55:19;;;;;;;1.90;1.60;;;25.60;47.90;;;;;;5038564;28;20123;-58
2021/07/19 02:57:48;;;;;;;2.00;1.60;;;25.50;47.90;;;;;;5038114;28;20333;-59
2021/07/19 03:00:16;;;;;;;1.95;1.60;;;25.50;47.90;;;;;;5038123;28;20460;-58
2021/07/19 03:02:59;;;;;;;2.45;1.80;;;25.50;47.90;;;;;;5030163;28;20459;-57
2021/07/19 03:05:29;;;;;;;2.53;1.98;;;25.50;47.90;;;;;;5037083;28;20453;-58
2021/07/19 03:07:59;;;;;;;1.95;1.67;;;25.50;47.90;;;;;;5030395;28;20029;-55
2021/07/19 03:10:50;;;;;;;2.38;1.90;;;25.50;47.90;;;;;;5054607;28;20427;-59
2021/07/19 03:13:24;;;;;;;2.47;1.70;;;25.50;47.90;;;;;;5038027;28;20504;-57
2021/07/19 03:15:54;;;;;;;2.25;1.73;;;25.50;47.90;;;;;;5055121;28;20444;-55
2021/07/19 03:18:21;;;;;;;1.98;1.55;;;25.40;47.90;;;;;;5037335;28;20115;-60
2021/07/19 03:20:49;;;;;;;2.80;1.83;;;25.50;48.00;;;;;;5055753;28;20348;-54
2021/07/19 03:23:16;;;;;;;1.98;1.77;;;25.50;48.00;;;;;;5021139;28;20415;-56
2021/07/19 03:25:44;;;;;;;2.95;1.60;;;25.50;48.00;;;;;;5054959;28;20424;-59
2021/07/19 03:28:12;;;;;;;2.20;1.50;;;25.40;47.90;;;;;;5055433;28;20035;-59
2021/07/19 03:30:40;;;;;;;2.53;1.67;;;25.40;47.90;;;;;;5037043;28;20110;-58
2021/07/19 03:33:09;;;;;;;2.05;1.80;;;25.40;48.00;;;;;;5037649;28;20028;-59
2021/07/19 03:35:36;;;;;;;6.18;2.17;;;25.40;48.00;;;;;;5037008;28;20025;-56
2021/07/19 03:38:05;;;;;;;1.98;1.40;;;25.40;48.00;;;;;;5037177;28;20487;-58
2021/07/19 03:40:43;;;;;;;2.00;1.65;;;25.40;48.00;;;;;;5037226;28;20479;-56
2021/07/19 03:43:09;;;;;;;2.30;1.63;;;25.40;48.00;;;;;;5037172;28;20105;-57
2021/07/19 03:45:37;;;;;;;1.98;1.67;;;25.40;48.10;;;;;;5036319;28;20095;-58
2021/07/19 03:48:07;;;;;;;2.47;2.10;;;25.40;48.10;;;;;;5036858;28;20048;-59
2021/07/19 03:50:37;;;;;;;1.95;1.73;;;25.40;48.10;;;;;;5055083;28;20029;-58
2021/07/19 03:53:03;;;;;;;2.45;2.00;;;25.40;48.10;;;;;;5054685;28;20067;-57
2021/07/19 03:55:30;;;;;;;2.13;1.67;;;25.40;48.10;;;;;;5036907;28;20110;-59
2021/07/19 03:57:58;;;;;;;2.30;1.90;;;25.40;48.20;;;;;;5036846;28;20021;-55
2021/07/19 04:00:24;;;;;;;2.53;1.80;;;25.40;48.20;;;;;;5054429;28;20033;-54
2021/07/19 04:03:26;;;;;;;2.65;1.85;;;25.40;48.20;;;;;;5036999;28;20106;-59
2021/07/19 04:06:11;;;;;;;1.83;1.60;;;25.40;48.20;;;;;;5019541;28;20079;-59
2021/07/19 04:08:50;;;;;;;2.80;1.63;;;25.40;48.30;;;;;;5036356;28;20021;-56
2021/07/19 04:11:20;;;;;;;1.85;1.58;;;25.30;48.30;;;;;;5054844;28;20133;-58
2021/07/19 04:13:48;;;;;;;3.70;1.90;;;25.30;48.20;;;;;;5036139;28;20356;-58
2021/07/19 04:16:18;;;;;;;2.30;1.67;;;25.30;48.20;;;;;;5036788;28;20344;-59
2021/07/19 04:18:46;;;;;;;2.03;1.65;;;25.30;48.30;;;;;;5036387;28;20551;-57
2021/07/19 04:21:12;;;;;;;1.70;1.35;;;25.30;48.30;;;;;;5037074;28;20040;-54
2021/07/19 04:23:40;;;;;;;2.45;1.70;;;25.30;48.30;;;;;;5035877;28;20478;-57
2021/07/19 04:26:15;;;;;;;2.40;1.63;;;25.30;48.30;;;;;;5033474;28;20500;-59
2021/07/19 04:28:44;;;;;;;2.10;1.65;;;25.30;48.40;;;;;;5035515;28;20033;-59
2021/07/19 04:31:15;;;;;;;2.70;1.90;;;25.30;48.40;;;;;;5035788;28;20118;-58
2021/07/19 04:33:46;;;;;;;2.13;1.50;;;25.30;48.40;;;;;;5035631;28;20021;-59
2021/07/19 04:36:17;;;;;;;2.03;1.60;;;25.40;48.40;;;;;;5035754;28;20124;-57
2021/07/19 04:38:46;;;;;;;1.55;1.45;;;25.30;48.40;;;;;;5035854;28;20025;-58
2021/07/19 04:41:15;;;;;;;1.95;1.50;;;25.30;48.40;;;;;;5036536;28;20033;-57
2021/07/19 04:43:41;;;;;;;2.10;1.80;;;25.30;48.40;;;;;;5053874;28;20479;-59
2021/07/19 04:46:07;;;;;;;1.75;1.52;;;25.30;48.40;;;;;;5053446;28;20040;-56
2021/07/19 04:48:33;;;;;;;2.10;1.60;;;25.30;48.40;;;;;;5053896;28;20032;-57
2021/07/19 04:50:59;;;;;;;2.15;1.60;;;25.40;48.40;;;;;;5054140;28;20455;-54
2021/07/19 04:53:25;;;;;;;2.35;1.70;;;25.30;48.40;;;;;;5053114;28;20088;-58
2021/07/19 04:55:53;;;;;;;2.60;1.70;;;25.30;48.30;;;;;;5053721;28;20024;-59
2021/07/19 04:58:23;;;;;;;1.83;1.55;;;25.30;48.30;;;;;;5053486;28;20111;-60
2021/07/19 05:00:56;;;;;;;1.65;1.55;;;25.30;48.30;;;;;;5054107;28;20041;-57
2021/07/19 05:03:25;;;;;;;2.40;1.92;;;25.30;48.30;;;;;;5053127;28;20375;-54
2021/07/19 05:05:52;;;;;;;1.75;1.48;;;25.40;48.40;;;;;;5034838;28;20072;-57
2021/07/19 05:08:20;;;;;;;2.25;1.77;;;25.30;48.30;;;;;;5052956;28;20029;-56
2021/07/19 05:10:49;;;;;;;3.03;1.58;;;25.40;48.40;;;;;;5053276;28;20041;-56
2021/07/19 05:13:16;;;;;;;2.20;1.63;;;25.30;48.30;;;;;;5053545;28;20047;-56
2021/07/19 05:15:44;;;;;;;2.35;1.65;;;25.40;48.40;;;;;;5053456;28;20021;-59
2021/07/19 05:18:10;;;;;;;2.20;1.65;;;25.40;48.40;;;;;;5053701;28;20036;-57
2021/07/19 05:20:37;;;;;;;1.77;1.48;;;25.40;48.40;;;;;;5035617;28;20057;-59
2021/07/19 05:23:03;;;;;;;2.53;1.75;;;25.30;48.30;;;;;;5051353;28;20071;-57
2021/07/19 05:25:32;;;;;;;2.15;1.70;;;25.30;48.30;;;;;;5053374;28;20044;-59
2021/07/19 05:28:08;;;;;;;2.13;1.77;;;25.30;48.90;;;;;;5053700;28;20040;-59
2021/07/19 05:30:35;;;;;;;1.85;1.40;;;25.40;48.30;;;;;;5053026;28;20329;-58
2021/07/19 05:33:02;;;;;;;2.13;1.50;;;25.30;48.30;;;;;;5052996;28;20098;-58
2021/07/19 05:35:28;;;;;;;2.28;1.40;;;25.30;48.30;;;;;;5053410;28;20154;-56
2021/07/19 05:37:53;;;;;;;1.40;1.20;;;25.30;48.30;;;;;;5053150;28;20474;-59
2021/07/19 05:40:19;;;;;;;1.77;1.58;;;25.30;48.30;;;;;;5053829;28;20025;-56
2021/07/19 05:42:45;;;;;;;2.63;1.65;;;25.30;48.30;;;;;;5052680;28;20033;-58
2021/07/19 05:45:13;;;;;;;1.92;1.40;;;25.30;48.30;;;;;;5048756;28;20044;-57
2021/07/19 05:47:39;;;;;;;2.15;1.70;;;25.40;48.40;;;;;;5053235;28;20025;-57
2021/07/19 05:50:06;;;;;;;2.33;1.83;;;25.30;48.40;;;;;;5057621;28;20040;-55
2021/07/19 05:52:33;;;;;;;2.70;2.10;;;25.30;48.40;;;;;;5057009;28;20033;-56
2021/07/19 05:54:59;;;;;;;4.10;1.73;;;25.30;48.40;;;;;;5056947;28;20029;-57
2021/07/19 05:57:28;;;;;;;2.42;1.73;;;25.30;48.50;;;;;;5057060;28;20025;-57
2021/07/19 05:59:56;;;;;;;2.58;1.52;;;25.30;49.20;;;;;;5057125;28;20053;-58
2021/07/19 06:02:25;;;;;;;1.80;1.42;;;25.30;48.60;;;;;;5056858;28;20048;-59
2021/07/19 06:04:51;;;;;;;2.10;1.60;;;25.30;48.60;;;;;;5055826;28;20025;-59
2021/07/19 06:07:17;;;;;;;1.85;1.55;;;25.40;48.60;;;;;;5038963;28;20344;-56
2021/07/19 06:09:43;;;;;;;2.08;1.67;;;25.30;48.60;;;;;;5056817;28;20063;-56
2021/07/19 06:12:10;;;;;;;2.72;1.67;;;25.30;48.60;;;;;;5057008;28;20032;-57
2021/07/19 06:14:37;;;;;;;2.10;1.60;;;25.40;48.60;;;;;;5057249;28;20333;-60
2021/07/19 06:17:03;;;;;;;1.50;1.40;;;25.30;48.60;;;;;;5055881;28;20044;-57
2021/07/19 06:19:30;;;;;;;2.33;1.80;;;25.40;48.80;;;;;;5055893;28;20357;-55
2021/07/19 06:21:56;;;;;;;2.67;1.50;;;25.30;48.80;;;;;;5055844;28;20025;-56
2021/07/19 06:24:22;;;;;;;3.65;2.03;;;25.30;48.80;;;;;;5038891;28;20048;-55
2021/07/19 06:26:48;;;;;;;1.90;1.60;;;25.30;48.90;;;;;;5052696;28;20048;-58
2021/07/19 06:29:14;;;;;;;1.90;1.60;;;25.40;49.00;;;;;;5049020;28;20116;-56
2021/07/19 06:31:40;;;;;;;2.92;1.90;;;25.40;49.00;;;;;;5055803;28;20029;-60
2021/07/19 06:34:08;;;;;;;3.78;1.80;;;25.40;49.10;;;;;;5054397;28;20043;-59
2021/07/19 06:36:34;;;;;;;3.53;1.98;;;25.40;49.20;;;;;;5055548;28;20040;-59
2021/07/19 06:39:01;;;;;;;2.35;1.50;;;25.40;49.30;;;;;;5056569;28;20025;-57
2021/07/19 06:41:27;;;;;;;3.33;1.98;;;25.40;49.40;;;;;;5055827;28;20178;-58
2021/07/19 06:43:52;;;;;;;2.28;1.75;;;25.40;49.40;;;;;;5056423;28;20135;-59
2021/07/19 06:46:18;;;;;;;2.75;1.95;;;25.50;49.50;;;;;;5055437;28;20033;-57
2021/07/19 06:48:44;;;;;;;3.47;1.85;;;25.50;49.50;;;;;;5055328;28;20040;-59
2021/07/19 06:51:10;;;;;;;2.17;1.60;;;25.60;49.50;;;;;;5055113;28;20337;-62
2021/07/19 06:53:36;;;;;;;3.78;1.60;;;25.60;49.50;;;;;;5045654;28;20028;-58
2021/07/19 06:56:01;;;;;;;3.00;1.85;;;25.60;49.40;;;;;;5055245;28;20092;-56
2021/07/19 06:58:27;;;;;;;2.92;1.67;;;25.60;49.40;;;;;;5055536;28;20033;-57
2021/07/19 07:00:53;;;;;;;2.03;1.63;;;25.70;49.50;;;;;;5056103;28;20056;-55
2021/07/19 07:03:19;;;;;;;2.30;1.75;;;25.70;49.50;;;;;;5054650;28;20428;-58
2021/07/19 07:05:44;;;;;;;2.28;1.60;;;25.80;49.40;;;;;;5054822;28;20361;-58
2021/07/19 07:08:10;;;;;;;3.25;2.10;;;25.80;49.40;;;;;;5054223;28;20412;-57
2021/07/19 07:10:36;;;;;;;2.05;1.63;;;25.80;49.30;;;;;;5055297;28;20033;-59
2021/07/19 07:13:08;;;;;;;3.20;1.80;;;25.90;49.30;;;;;;5054798;28;20028;-60
2021/07/19 07:15:33;;;;;;;2.20;1.83;;;25.90;49.20;;;;;;5037454;28;20353;-60
2021/07/19 07:17:59;;;;;;;2.25;1.98;;;25.90;49.00;;;;;;5055391;28;20044;-58
2021/07/19 07:20:25;;;;;;;1.98;1.70;;;25.90;49.00;;;;;;5053802;28;20024;-60
2021/07/19 07:22:52;;;;;;;2.97;2.20;;;25.90;49.00;;;;;;5054771;28;20040;-59
2021/07/19 07:25:18;;;;;;;2.72;1.63;;;25.90;49.00;;;;;;5047893;28;20044;-58
2021/07/19 07:27:43;;;;;;;2.83;1.80;;;25.90;49.00;;;;;;5054157;28;20219;-56
2021/07/19 07:30:10;;;;;;;3.15;2.10;;;25.90;49.60;;;;;;5055178;28;20145;-59
2021/07/19 07:32:37;;;;;;;2.28;1.77;;;25.90;49.00;;;;;;5035302;28;20187;-58
2021/07/19 07:35:04;;;;;;;3.38;2.15;;;26.00;48.90;;;;;;5049547;28;20021;-57
2021/07/19 07:37:33;;;;;;;2.65;1.73;;;26.00;48.80;;;;;;5049042;28;20040;-59
2021/07/19 07:39:59;;;;;;;3.28;2.03;;;26.00;48.70;;;;;;5054029;28;20036;-59
2021/07/19 07:42:25;;;;;;;2.67;1.88;;;26.00;48.60;;;;;;5053574;28;20122;-60
2021/07/19 07:44:51;;;;;;;2.42;1.92;;;26.00;48.50;;;;;;5054325;28;20470;-59
2021/07/19 07:47:17;;;;;;;3.38;2.08;;;26.10;48.50;;;;;;5053349;28;20028;-59
2021/07/19 07:49:43;;;;;;;3.38;2.08;;;26.00;48.30;;;;;;5053676;28;20467;-59
2021/07/19 07:52:09;;;;;;;2.90;1.95;;;26.10;48.20;;;;;;5049719;28;20040;-57
2021/07/19 07:54:36;;;;;;;2.83;1.95;;;26.10;48.00;;;;;;5053751;28;20032;-57
2021/07/19 07:57:03;;;;;;;2.97;2.15;;;26.10;47.90;;;;;;5049684;28;20047;-59
2021/07/19 07:59:29;;;;;;;2.53;1.85;;;26.10;47.70;;;;;;5050762;28;20060;-56
2021/07/19 08:01:57;;;;;;;2.83;2.00;;;26.10;47.50;;;;;;5032629;28;20025;-59
2021/07/19 08:04:23;;;;;;;2.20;2.00;;;26.10;47.40;;;;;;5053140;28;20423;-57
2021/07/19 08:06:49;;;;;;;2.50;1.90;;;26.10;47.30;;;;;;5051196;28;20041;-59
2021/07/19 08:09:14;;;;;;;2.58;2.17;;;26.10;47.20;;;;;;5049085;28;20060;-56
2021/07/19 08:11:41;;;;;;;3.30;2.50;;;26.10;47.10;;;;;;5051022;28;20068;-58
2021/07/19 08:14:07;;;;;;;2.58;2.35;;;26.10;47.00;;;;;;5048551;28;20087;-60
2021/07/19 08:16:36;;;;;;;2.88;2.30;;;26.10;46.90;;;;;;5051095;28;20033;-59
2021/07/19 08:19:07;;;;;;;2.80;2.30;;;26.10;46.80;;;;;;5052689;28;20041;-56
2021/07/19 08:21:34;;;;;;;3.15;2.80;;;26.10;46.70;;;;;;5049330;28;20061;-57
2021/07/19 08:24:01;;;;;;;3.08;2.33;;;26.10;46.70;;;;;;5052497;28;20078;-58
2021/07/19 08:26:27;;;;;;;2.95;2.38;;;26.10;46.60;;;;;;5051137;28;20036;-58
2021/07/19 08:28:55;;;;;;;2.90;2.60;;;26.10;46.50;;;;;;5051212;28;20779;-57
2021/07/19 08:31:24;;;;;;;2.50;2.30;;;26.20;46.60;;;;;;5050439;28;20401;-57
2021/07/19 08:33:51;;;;;;;2.70;2.38;;;26.20;46.60;;;;;;5053242;28;20090;-58
2021/07/19 08:36:17;;;;;;;3.67;2.78;;;26.20;46.60;;;;;;5054046;28;20029;-62
2021/07/19 08:38:44;;;;;;;3.08;2.50;;;26.20;46.50;;;;;;5049587;28;20100;-62
2021/07/19 08:41:12;;;;;;;4.00;3.13;;;26.20;46.50;;;;;;5051072;28;20051;-52
2021/07/19 08:43:39;;;;;;;3.30;2.90;;;26.20;46.50;;;;;;5048841;28;20022;-55
2021/07/19 08:46:06;;;;;;;3.60;2.83;;;26.20;46.60;;;;;;5043722;28;20407;-59
2021/07/19 08:48:33;;;;;;;3.08;2.47;;;26.20;46.60;;;;;;5046422;28;20033;-61
2021/07/19 08:51:00;;;;;;;3.78;2.60;;;26.30;46.70;;;;;;5035315;28;20111;-56
2021/07/19 08:53:27;;;;;;;3.45;2.60;;;26.30;46.80;;;;;;5035400;28;20451;-58
2021/07/19 08:55:56;;;;;;;3.65;2.80;;;26.30;46.70;;;;;;5044734;28;20061;-59
2021/07/19 08:58:23;;;;;;;3.15;2.53;;;26.30;46.70;;;;;;5051725;28;20033;-57
2021/07/19 09:00:56;;;;;;;3.97;3.28;;;26.30;46.70;;;;;;5035346;28;20029;-57
2021/07/19 09:03:21;;;;;;;3.20;2.70;;;26.40;46.70;;;;;;5048426;28;20469;-60
2021/07/19 09:05:47;;;;;;;3.97;2.90;;;26.40;46.60;;;;;;5032049;28;20143;-57
2021/07/19 09:08:13;;;;;;;3.05;2.35;;;26.40;46.60;;;;;;5025741;28;20087;-60
2021/07/19 09:10:39;;;;;;;4.20;2.97;;;26.40;46.50;;;;;;5032614;28;20117;-57
2021/07/19 09:13:07;;;;;;;3.55;2.80;;;26.50;46.60;;;;;;5033612;28;20431;-55
2021/07/19 09:15:36;;;;;;;3.55;2.70;;;26.50;46.50;;;;;;5029305;28;20037;-57
2021/07/19 09:18:04;;;;;;;2.92;2.47;;;26.50;46.50;;;;;;5031218;28;20029;-56
2021/07/19 09:20:34;;;;;;;3.55;3.17;;;26.50;46.50;;;;;;5033507;28;20094;-53
2021/07/19 09:23:04;;;;;;;3.38;2.65;;;26.60;46.50;;;;;;5029561;28;20075;-63
2021/07/19 09:25:30;;;;;;;3.55;2.78;;;26.60;46.50;;;;;;5028050;28;20045;-60
2021/07/19 09:28:11;;;;;;;2.80;2.20;;;26.60;46.50;;;;;;5036729;28;20427;-59
2021/07/19 09:30:45;;;;;;;2.75;2.55;;;26.60;46.50;;;;;;5037769;28;20029;-60
2021/07/19 09:33:15;;;;;;;2.58;2.35;;;26.60;46.40;;;;;;5036709;28;20029;-59
2021/07/19 09:35:46;;;;;;;2.80;2.30;;;26.70;46.40;;;;;;5037472;28;20432;-59
2021/07/19 09:38:17;;;;;;;2.75;2.55;;;26.60;46.20;;;;;;5037496;28;20100;-58
2021/07/19 09:40:56;;;;;;;4.22;2.72;;;26.60;46.20;;;;;;5037202;28;20116;-56
2021/07/19 09:43:30;;;;;;;3.00;2.58;;;26.70;46.10;;;;;;5031121;28;20041;-59
2021/07/19 09:46:08;;;;;;;2.97;2.60;;;26.60;46.00;;;;;;5037192;28;20048;-58
2021/07/19 09:48:35;;;;;;;3.40;3.03;;;26.70;46.10;;;;;;5035032;28;20452;-60
2021/07/19 09:51:03;;;;;;;3.55;3.10;;;26.70;46.10;;;;;;5037214;28;20076;-60
2021/07/19 09:53:35;;;;;;;2.90;2.60;;;26.70;46.00;;;;;;5037222;28;20033;-59
2021/07/19 09:56:21;;;;;;;3.33;2.72;;;26.70;45.90;;;;;;5037382;28;20398;-59
2021/07/19 09:58:52;;;;;;;3.38;3.05;;;26.70;45.80;;;;;;5036000;28;20456;-59
2021/07/19 10:01:26;;;;;;;3.08;2.63;;;26.70;45.90;;;;;;5035309;28;20105;-59
2021/07/19 10:04:12;;;;;;;3.70;2.95;;;26.70;45.80;;;;;;5031528;28;20048;-58
2021/07/19 10:06:43;;;;;;;3.47;2.90;;;26.70;45.80;;;;;;5050646;28;20413;-58
2021/07/19 10:09:11;;;;;;;2.90;2.60;;;26.70;45.80;;;;;;5053181;28;20120;-59
2021/07/19 10:11:40;;;;;;;2.83;2.50;;;26.70;45.80;;;;;;5032345;28;20036;-58
2021/07/19 10:14:07;;;;;;;3.65;2.88;;;26.70;45.80;;;;;;5052260;28;20463;-59
2021/07/19 10:16:34;;;;;;;3.47;2.60;;;26.70;45.80;;;;;;5055315;28;20033;-57
2021/07/19 10:19:02;;;;;;;3.10;2.80;;;26.70;45.70;;;;;;5051962;28;20104;-56
2021/07/19 10:21:30;;;;;;;4.80;3.10;;;26.70;45.70;;;;;;5056986;28;20025;-61
2021/07/19 10:24:01;;;;;;;3.95;2.78;;;26.70;45.70;;;;;;5052534;28;20017;-59
2021/07/19 10:26:28;;;;;;;3.33;2.90;;;26.80;45.70;;;;;;5042505;28;20047;-59
2021/07/19 10:28:55;;;;;;;3.53;2.85;;;26.80;45.70;;;;;;5047126;28;20037;-60
2021/07/19 10:31:21;;;;;;;2.97;2.58;;;26.80;45.70;;;;;;5051133;28;20115;-59
2021/07/19 10:33:48;;;;;;;3.13;2.55;;;26.80;45.60;;;;;;5052335;28;20025;-61
2021/07/19 10:36:23;;;;;;;3.25;2.85;;;26.80;45.60;;;;;;5052925;28;20133;-60
2021/07/19 10:38:50;;;;;;;3.47;2.83;;;26.80;45.50;;;;;;5047002;28;20041;-59
2021/07/19 10:41:22;;;;;;;3.47;3.17;;;26.80;45.60;;;;;;5045423;28;20024;-61
2021/07/19 10:43:58;;;;;;;3.78;2.88;;;26.80;45.50;;;;;;5046063;28;20036;-59
2021/07/19 10:46:27;;;;;;;3.30;2.90;;;26.80;45.40;;;;;;5046521;28;20033;-60
2021/07/19 10:49:06;;;;;;;5.82;3.33;;;26.80;45.50;;;;;;5045427;28;20389;-59
2021/07/19 10:51:40;;;;;;;3.47;3.00;;;26.80;45.50;;;;;;5046363;28;20403;-54
2021/07/19 10:54:17;;;;;;;3.78;3.22;;;26.80;45.70;;;;;;5048325;28;20136;-59
2021/07/19 10:56:43;;;;;;;4.60;3.10;;;26.80;45.60;;;;;;5047420;28;20040;-60
2021/07/19 10:59:09;;;;;;;3.53;3.20;;;26.80;45.70;;;;;;5048509;28;20053;-58
2021/07/19 11:01:35;;;;;;;4.10;3.05;;;26.90;45.80;;;;;;5052857;28;20186;-59
2021/07/19 11:04:14;;;;;;;3.38;3.08;;;26.90;45.80;;;;;;5039579;28;20459;-57
2021/07/19 11:06:41;;;;;;;3.70;3.05;;;26.90;45.70;;;;;;5040867;28;20045;-62
2021/07/19 11:09:08;;;;;;;5.05;3.40;;;26.90;45.80;;;;;;5031458;28;20436;-64
2021/07/19 11:11:41;;;;;;;5.38;3.30;;;26.90;45.80;;;;;;5034739;28;20384;-59
2021/07/19 11:14:20;;;;;;;3.75;2.95;;;26.90;45.80;;;;;;5052399;28;20040;-63
2021/07/19 11:16:53;;;;;;;3.55;3.10;;;26.90;45.90;;;;;;5048583;28;20112;-61
2021/07/19 11:19:36;;;;;;;3.97;3.38;;;26.90;45.90;;;;;;5045045;28;20032;-59
2021/07/19 11:22:29;;;;;;;3.08;2.78;;;26.90;45.90;;;;;;5045663;28;20052;-61
2021/07/19 11:25:06;;;;;;;3.30;3.00;;;27.00;46.00;;;;;;5041701;28;20065;-60
2021/07/19 11:27:37;;;;;;;3.72;3.00;;;27.00;46.00;;;;;;5045201;28;20364;-61
2021/07/19 11:30:09;;;;;;;3.72;3.08;;;26.90;45.90;;;;;;5044872;28;20509;-63
2021/07/19 11:32:37;;;;;;;3.17;2.88;;;27.00;46.00;;;;;;5046555;28;20067;-61
2021/07/19 11:35:19;;;;;;;4.57;3.78;;;27.00;45.90;;;;;;5027936;28;20577;-62
2021/07/19 11:37:48;;;;;;;3.70;3.35;;;27.00;45.90;;;;;;5045773;28;20040;-60
2021/07/19 11:40:28;;;;;;;4.00;3.22;;;27.00;45.80;;;;;;5047725;28;20317;-49
2021/07/19 11:42:55;;;;;;;3.88;3.30;;;27.00;45.70;;;;;;5051642;28;20113;-54
2021/07/19 11:45:23;;;;;;;4.45;3.35;;;27.00;45.80;;;;;;5048675;28;20757;-60
2021/07/19 11:47:52;;;;;;;4.00;3.22;;;27.00;45.80;;;;;;5055147;28;20032;-58
2021/07/19 11:50:21;;;;;;;4.00;3.47;;;27.00;45.70;;;;;;5051031;28;20029;-61
2021/07/19 11:52:49;;;;;;;3.78;3.10;;;27.10;45.80;;;;;;5054809;28;20383;-60
2021/07/19 11:55:19;;;;;;;4.18;3.30;;;27.10;45.70;;;;;;5054261;28;20045;-56
2021/07/19 11:57:55;;;;;;;4.47;3.40;;;27.10;45.70;;;;;;5051122;28;20272;-56
2021/07/19 12:00:32;;;;;;;3.83;3.40;;;27.10;45.70;;;;;;5052219;28;20428;-59
2021/07/19 12:03:02;;;;;;;4.20;3.38;;;27.10;45.60;;;;;;5054723;28;20432;-60
2021/07/19 12:05:29;;;;;;;3.40;3.10;;;27.10;45.50;;;;;;5053534;28;20048;-59
2021/07/19 12:08:03;;;;;;;4.13;3.72;;;27.10;45.60;;;;;;5053205;28;20044;-56
2021/07/19 12:10:31;;;;;;;5.10;3.20;;;27.10;45.50;;;;;;5047347;28;20421;-57
2021/07/19 12:12:57;;;;;;;4.10;3.70;;;27.10;45.50;;;;;;5054731;28;20033;-58
2021/07/19 12:15:23;;;;;;;4.28;3.58;;;27.10;45.40;;;;;;5052775;28;20048;-57
2021/07/19 12:17:56;;;;;;;4.35;3.50;;;27.10;45.40;;;;;;5054817;28;20331;-58
2021/07/19 12:20:27;;;;;;;5.13;3.60;;;27.10;45.20;;;;;;5053602;28;20029;-59
2021/07/19 12:22:55;;;;;;;4.60;3.40;;;27.10;45.20;;;;;;5053055;28;20032;-58
2021/07/19 12:25:21;;;;;;;3.60;3.08;;;27.10;45.20;;;;;;5052977;28;20083;-58
2021/07/19 12:27:58;;;;;;;4.55;3.70;;;27.10;45.20;;;;;;5052986;28;20106;-60
2021/07/19 12:30:26;;;;;;;4.05;3.65;;;27.10;45.10;;;;;;5043750;28;20120;-61
2021/07/19 12:32:53;;;;;;;4.07;3.55;;;27.10;45.20;;;;;;5043548;28;20025;-63
2021/07/19 12:35:23;;;;;;;5.25;3.75;;;27.20;45.30;;;;;;5047120;28;20119;-61
2021/07/19 12:37:57;;;;;;;4.10;3.35;;;27.20;45.30;;;;;;5044304;28;20055;-65
2021/07/19 12:40:26;;;;;;;4.55;3.25;;;27.20;45.20;;;;;;5032045;28;20090;-63
2021/07/19 12:42:54;;;;;;;4.93;3.85;;;27.20;45.40;;;;;;5044232;28;20436;-66
2021/07/19 12:45:20;;;;;;;4.13;3.60;;;27.20;45.50;;;;;;5050084;28;20057;-64
2021/07/19 12:47:48;;;;;;;4.15;3.58;;;27.20;45.60;;;;;;5045125;28;20032;-65
2021/07/19 12:50:14;;;;;;;6.57;3.47;;;27.30;45.90;;;;;;5043778;28;20045;-61
2021/07/19 12:52:40;;;;;;;4.28;3.65;;;27.30;46.10;;;;;;5053193;28;20033;-64
2021/07/19 12:55:10;;;;;;;5.25;3.63;;;27.30;46.10;;;;;;5049197;28;20032;-63
2021/07/19 12:57:40;;;;;;;3.97;3.50;;;27.30;46.20;;;;;;5050971;28;20074;-62
2021/07/19 13:00:13;;;;;;;4.75;3.88;;;27.40;46.20;;;;;;5044252;28;20440;-63